La Luz, New Mexico
Current Conditions -  °F | °C
As of 12:58 AM on Saturday 01 Nov 2014 (Local Time) from KHMN Reporting Station
Few Clouds Few Clouds  
Wind Chill: 57°   Ceiling: Unl
Heat Index: 57°   Visibility: 10mi
Dew Point: 38°   Wind: 0mph
Humidity: 49%   Direction: NA
Pressure: 30.19"   Gusts: NA
Location:  32.98°N, 105.94°W
Report Text: KHMN 010658Z AUTO 00000KT 10SM FEW110 14/03 A3019 RMK AO2 SLP175 T01380033 402310069 $
Loading
Personal Weather Stations






























Interactive Weather Map
Tropical Storm Tracking
New forecast layout! Learn more

10-Day Weather Forecast

Advertisements
Track Severe Weather on mobile